El Paso, TX

6:48 AM MDT on August 24, 2016 (GMT -0600)
| | Change Station

Elev -9999 ft 0.00 °N, 0.00 °E | Updated

Partly Cloudy
Partly Cloudy
73 °F
Feels Like 73 °F
N
8
Wind Variable Wind from SSW
Gusts mph

Today
High -- | Low -- °F
--% Chance of Precip.
Yesterday
High -- | Low -- °F
Precip. -- in
Pressure 29.93 in
Visibility 10.0 miles
Clouds Mostly Cloudy 10000 ft
Mostly Cloudy 14000 ft
Overcast 25000 ft
Dew Point 61 °F
Humidity 66%
Rainfall --
Snow Depth Not available.
6:36 AM 7:38 PM
Waning Gibbous, 57% visible
METAR KELP 241151Z 15008KT 10SM BKN100 BKN140 OVC250 21/18 A3012 RMK AO2 SLP133 70041 T02060178 10206 20200 53003 $
Pressure 29.93 in
Visibility 10.0 miles
Clouds Mostly Cloudy 10000 ft
Mostly Cloudy 14000 ft
Overcast 25000 ft
Dew Point 61 °F
Humidity 66%
Rainfall --
Snow Depth Not available.
6:36 AM 7:38 PM
Waning Gibbous, 57% visible
METAR KELP 241151Z 15008KT 10SM BKN100 BKN140 OVC250 21/18 A3012 RMK AO2 SLP133 70041 T02060178 10206 20200 53003 $

10-Day Weather Forecast

Almanac

Astronomy

Aug. 24, 2016 Rise Set
Actual Time
Civil Twilight
Nautical Twilight
Astronomical Twilight
Moon
Length of Visible Light
Length of Day
Tomorrow will be .
, % of the Moon is Illuminated

Today's Extremes

State Highs State Lows

Community

WunderPhotos

Upload Photos

1,934,584 photos uploaded!

WunderBlog® & News

Nearby

Air Quality

  Air Quality AQ Index Pollutant
Not available.

Snow Depth

Station Depth Elevation

Earthquake Activity

City Distance Mag. Time & Date
Minimum magnitude displayed is 2.5.

Coastal Water Temperatures

Place Temperature

Stations

Nearby Weather Stations

Station Location Temp. Windchill Dew Point Humidity Wind Precip. Elev Updated Type
                   

Watches & Warnings

There are currently no watches in effect.